Time;durP1;ratioP1;P1;durP2;ratioP2;P2;SDS_P1;SDS_P2;PMS_P1;PMS_P2;Temp;Humidity;BMP_temperature;BMP_pressure;BME280_temperature;BME280_humidity;BME280_pressure;Samples;Min_cycle;Max_cycle;Signal;HPM_P1;HPM_P2
2021/06/16 00:01:43;;;;;;;27.10;7.30;;;;;;;;;;5060231;28;20049;-57
2021/06/16 00:04:10;;;;;;;33.97;6.72;;;;;;;;;;5059275;28;20044;-57
2021/06/16 00:06:37;;;;;;;35.83;7.47;;;;;;;;;;5059409;28;20041;-57
2021/06/16 00:09:04;;;;;;;29.38;7.93;;;;;;;;;;5059540;28;20052;-57
2021/06/16 00:11:31;;;;;;;29.05;7.32;;;;;;;;;;5058916;28;20045;-57
2021/06/16 00:13:58;;;;;;;31.33;7.67;;;;;;;;;;5059232;28;20040;-57
2021/06/16 00:16:24;;;;;;;30.45;6.95;;;;;;;;;;5059215;28;20048;-58
2021/06/16 00:18:51;;;;;;;30.20;7.50;;;;;;;;;;5058168;28;20041;-61
2021/06/16 00:21:22;;;;;;;30.42;8.30;;;;;;;;;;5057587;28;20082;-57
2021/06/16 00:23:51;;;;;;;37.33;8.63;;;;;;;;;;5055706;28;20047;-57
2021/06/16 00:26:18;;;;;;;29.02;7.43;;;;;;;;;;5061724;28;20056;-57
2021/06/16 00:28:45;;;;;;;30.27;8.23;;;;;;;;;;5059800;28;20041;-57
2021/06/16 00:31:12;;;;;;;30.85;7.60;;;;;;;;;;5059701;28;20098;-57
2021/06/16 00:33:39;;;;;;;39.80;8.27;;;;;;;;;;5063735;28;20051;-57
2021/06/16 00:36:06;;;;;;;33.10;8.02;;;;;;;;;;5058243;28;20049;-56
2021/06/16 00:38:33;;;;;;;37.08;8.40;;;;;;;;;;5059161;28;20510;-57
2021/06/16 00:41:00;;;;;;;32.17;8.67;;;;;;;;;;5058287;28;20048;-57
2021/06/16 00:43:27;;;;;;;25.13;8.43;;;;;;;;;;5060697;28;20773;-57
2021/06/16 00:45:58;;;;;;;48.17;8.40;;;;;;;;;;5060239;28;20055;-57
2021/06/16 00:48:25;;;;;;;45.45;8.57;;;;;;;;;;5059514;28;20106;-56
2021/06/16 00:50:58;;;;;;;43.13;8.43;;;;;;;;;;5057946;28;20056;-56
2021/06/16 00:53:25;;;;;;;30.88;8.07;;;;;;;;;;5059775;28;20033;-57
2021/06/16 00:55:58;;;;;;;46.15;9.32;;;;;;;;;;5055063;28;20493;-57
2021/06/16 00:58:25;;;;;;;26.75;7.88;;;;;;;;;;5058654;28;20579;-57
2021/06/16 01:00:55;;;;;;;35.83;8.47;;;;;;;;;;5059054;28;20052;-57
2021/06/16 01:03:48;;;;;;;37.00;8.27;;;;;;;;;;5058881;28;20070;-57
2021/06/16 01:06:20;;;;;;;26.10;6.72;;;;;;;;;;5028910;28;20557;-57
2021/06/16 01:09:07;;;;;;;44.38;8.93;;;;;;;;;;5059590;28;20084;-56
2021/06/16 01:11:36;;;;;;;37.60;7.70;;;;;;;;;;5044661;28;20041;-57
2021/06/16 01:14:08;;;;;;;29.05;7.75;;;;;;;;;;5061057;28;20099;-57
2021/06/16 01:16:49;;;;;;;42.35;8.38;;;;;;;;;;5059436;28;20102;-57
2021/06/16 01:19:18;;;;;;;24.73;7.55;;;;;;;;;;5059821;28;20049;-57
2021/06/16 01:21:49;;;;;;;26.92;8.02;;;;;;;;;;5053266;28;20501;-57
2021/06/16 01:24:19;;;;;;;27.80;7.97;;;;;;;;;;5061648;28;20032;-57
2021/06/16 01:26:49;;;;;;;29.13;7.68;;;;;;;;;;5060116;28;20040;-57
2021/06/16 01:29:17;;;;;;;30.90;8.27;;;;;;;;;;5058401;28;20040;-56
2021/06/16 01:31:45;;;;;;;29.25;7.75;;;;;;;;;;5058246;28;20048;-56
2021/06/16 01:34:13;;;;;;;36.63;8.45;;;;;;;;;;5055603;28;20086;-57
2021/06/16 01:36:43;;;;;;;41.65;9.32;;;;;;;;;;5054190;28;20663;-56
2021/06/16 01:39:11;;;;;;;31.50;8.35;;;;;;;;;;5055717;28;20056;-56
2021/06/16 01:41:40;;;;;;;35.60;8.50;;;;;;;;;;5055248;28;20064;-55
2021/06/16 01:44:07;;;;;;;27.25;8.55;;;;;;;;;;5063642;28;20040;-57
2021/06/16 01:46:34;;;;;;;27.10;6.72;;;;;;;;;;5059655;28;20097;-54
2021/06/16 01:49:01;;;;;;;35.58;7.95;;;;;;;;;;5060769;28;20040;-57
2021/06/16 01:51:28;;;;;;;39.13;7.47;;;;;;;;;;5060811;28;20041;-57
2021/06/16 01:53:55;;;;;;;29.80;8.63;;;;;;;;;;5062132;28;20060;-57
2021/06/16 02:25:37;;;;;;;23.08;8.45;;;;;;;;;;5116881;27;20433;-54
2021/06/16 02:28:04;;;;;;;33.28;9.10;;;;;;;;;;5116632;27;20048;-57
2021/06/16 02:30:30;;;;;;;33.88;9.40;;;;;;;;;;5120380;27;20067;-58
2021/06/16 02:32:57;;;;;;;34.55;10.10;;;;;;;;;;5116648;27;20108;-56
2021/06/16 02:35:24;;;;;;;46.65;10.30;;;;;;;;;;5118017;27;20043;-57
2021/06/16 02:37:53;;;;;;;39.13;9.50;;;;;;;;;;5114568;28;20445;-57
2021/06/16 02:40:20;;;;;;;33.50;10.18;;;;;;;;;;5111963;28;20040;-57
2021/06/16 03:26:33;;;;;;;24.50;5.90;;;;;;;;;;5095902;27;20425;-56
2021/06/16 03:29:01;;;;;;;23.40;5.78;;;;;;;;;;5094556;28;20040;-57
2021/06/16 03:31:27;;;;;;;27.77;6.40;;;;;;;;;;5090703;28;20050;-57
2021/06/16 03:33:55;;;;;;;21.43;6.20;;;;;;;;;;5079863;28;20097;-57
2021/06/16 03:36:23;;;;;;;25.40;7.03;;;;;;;;;;5085284;28;20036;-57
2021/06/16 03:38:51;;;;;;;21.27;7.25;;;;;;;;;;5087800;28;20028;-57
2021/06/16 03:41:18;;;;;;;28.35;7.05;;;;;;;;;;5088828;28;20050;-57
2021/06/16 03:43:46;;;;;;;22.30;6.75;;;;;;;;;;5088417;28;20092;-55
2021/06/16 03:46:14;;;;;;;35.75;7.43;;;;;;;;;;5086815;28;20054;-56
2021/06/16 03:48:43;;;;;;;29.30;7.50;;;;;;;;;;5078966;28;20048;-57
2021/06/16 03:51:10;;;;;;;31.88;7.60;;;;;;;;;;5079295;28;20040;-58
2021/06/16 03:53:37;;;;;;;20.10;5.90;;;;;;;;;;5083457;28;20049;-56
2021/06/16 03:56:04;;;;;;;15.93;5.63;;;;;;;;;;5083497;28;20043;-55
2021/06/16 03:58:31;;;;;;;20.80;4.95;;;;;;;;;;5082690;28;20500;-58
2021/06/16 04:00:57;;;;;;;16.57;5.03;;;;;;;;;;5086393;28;20047;-58
2021/06/16 04:03:25;;;;;;;18.90;4.15;;;;;;;;;;5089008;28;20052;-58
2021/06/16 04:05:52;;;;;;;18.75;4.18;;;;;;;;;;5089298;28;20519;-59
2021/06/16 04:08:20;;;;;;;16.17;4.63;;;;;;;;;;5083235;28;20044;-59
2021/06/16 04:10:47;;;;;;;15.15;4.25;;;;;;;;;;5088076;28;20056;-59
2021/06/16 04:13:15;;;;;;;10.50;3.80;;;;;;;;;;5086316;28;20036;-59
2021/06/16 04:15:41;;;;;;;19.70;4.30;;;;;;;;;;5089200;28;20046;-59
2021/06/16 04:18:08;;;;;;;17.80;4.95;;;;;;;;;;5088056;28;20040;-59
2021/06/16 04:20:40;;;;;;;14.05;4.15;;;;;;;;;;5083985;28;20090;-59
2021/06/16 04:23:06;;;;;;;16.40;4.30;;;;;;;;;;5083374;28;20040;-59
2021/06/16 04:25:33;;;;;;;25.65;4.07;;;;;;;;;;5085114;28;20051;-59
2021/06/16 05:26:31;;;;;;;17.25;5.20;;;;;;;;;;5050414;28;20382;-57
2021/06/16 05:28:58;;;;;;;15.85;4.45;;;;;;;;;;5034470;28;20340;-58
2021/06/16 05:31:25;;;;;;;20.50;4.72;;;;;;;;;;5038558;28;20474;-58
2021/06/16 05:33:52;;;;;;;24.40;5.22;;;;;;;;;;5033884;28;20041;-58
2021/06/16 05:36:18;;;;;;;29.35;5.03;;;;;;;;;;5033737;28;20034;-58
2021/06/16 05:38:46;;;;;;;19.38;4.93;;;;;;;;;;5035603;28;20056;-59
2021/06/16 05:41:13;;;;;;;12.23;4.27;;;;;;;;;;5030831;28;20034;-59
2021/06/16 05:43:40;;;;;;;19.80;4.10;;;;;;;;;;5035766;28;20584;-59
2021/06/16 05:46:07;;;;;;;21.35;4.88;;;;;;;;;;5031322;28;20813;-59
2021/06/16 05:48:34;;;;;;;22.00;5.30;;;;;;;;;;5032589;28;20091;-59
2021/06/16 05:51:01;;;;;;;16.10;4.77;;;;;;;;;;5037027;28;20041;-59
2021/06/16 05:53:30;;;;;;;17.02;4.07;;;;;;;;;;5031924;28;20502;-59
2021/06/16 05:55:57;;;;;;;16.20;4.50;;;;;;;;;;5033972;28;20055;-59
2021/06/16 05:58:24;;;;;;;14.70;4.53;;;;;;;;;;5033892;28;20120;-59
2021/06/16 06:00:51;;;;;;;15.38;4.72;;;;;;;;;;5030777;28;20136;-59
2021/06/16 06:03:17;;;;;;;20.07;5.47;;;;;;;;;;5030148;28;20099;-59
2021/06/16 06:05:48;;;;;;;13.65;3.95;;;;;;;;;;5033844;28;20412;-59
2021/06/16 06:08:15;;;;;;;21.13;4.55;;;;;;;;;;5034455;28;20695;-59
2021/06/16 06:10:45;;;;;;;18.52;4.95;;;;;;;;;;5032985;28;20489;-59
2021/06/16 06:13:13;;;;;;;21.50;5.22;;;;;;;;;;5032283;28;20033;-59
2021/06/16 06:15:40;;;;;;;;;;;;;;;;;;5033538;28;20045;-59
2021/06/16 06:18:07;;;;;;;25.77;4.80;;;;;;;;;;5033156;28;19928;-59
2021/06/16 06:20:36;;;;;;;18.42;4.30;;;;;;;;;;5034330;28;20451;-59
2021/06/16 06:23:02;;;;;;;12.70;4.40;;;;;;;;;;5036956;28;20040;-59
2021/06/16 06:25:32;;;;;;;19.13;4.80;;;;;;;;;;5032622;28;20509;-59
2021/06/16 06:28:00;;;;;;;;;;;;;;;;;;5029319;28;20539;-59
2021/06/16 06:30:27;;;;;;;14.80;4.60;;;;;;;;;;5029354;28;19982;-59
2021/06/16 06:32:53;;;;;;;15.32;4.13;;;;;;;;;;5033647;28;20030;-59
2021/06/16 06:35:20;;;;;;;11.80;3.93;;;;;;;;;;5037768;28;20547;-58
2021/06/16 06:37:47;;;;;;;13.40;3.72;;;;;;;;;;5019171;28;20153;-59
2021/06/16 06:40:13;;;;;;;13.65;4.07;;;;;;;;;;5019884;28;20038;-59
2021/06/16 06:42:40;;;;;;;11.70;3.33;;;;;;;;;;5018755;28;20048;-59
2021/06/16 06:45:07;;;;;;;16.17;4.22;;;;;;;;;;5015604;28;20293;-59
2021/06/16 06:47:35;;;;;;;14.85;4.22;;;;;;;;;;5016953;28;20125;-59
2021/06/16 06:50:03;;;;;;;15.02;4.32;;;;;;;;;;5017931;28;20038;-59
2021/06/16 06:52:30;;;;;;;10.52;3.65;;;;;;;;;;5023073;28;20049;-59
2021/06/16 06:54:58;;;;;;;11.10;3.42;;;;;;;;;;5023048;28;20124;-59
2021/06/16 06:57:26;;;;;;;16.25;3.28;;;;;;;;;;5022399;28;20114;-59
2021/06/16 06:59:56;;;;;;;10.57;2.95;;;;;;;;;;5020200;28;20048;-59
2021/06/16 07:02:22;;;;;;;9.80;2.90;;;;;;;;;;5012061;28;20042;-59
2021/06/16 07:04:51;;;;;;;8.57;3.13;;;;;;;;;;5019507;28;20049;-59
2021/06/16 07:07:18;;;;;;;15.48;3.90;;;;;;;;;;5021924;28;20042;-59
2021/06/16 07:09:46;;;;;;;10.00;3.10;;;;;;;;;;5026571;28;20546;-59
2021/06/16 07:12:13;;;;;;;16.60;4.20;;;;;;;;;;5020105;28;20042;-59
2021/06/16 07:14:41;;;;;;;8.10;3.45;;;;;;;;;;5021301;28;20041;-59
2021/06/16 07:17:07;;;;;;;10.55;3.63;;;;;;;;;;5013391;28;20060;-59
2021/06/16 07:19:34;;;;;;;6.95;3.00;;;;;;;;;;5021250;28;20103;-59
2021/06/16 07:22:01;;;;;;;11.57;3.03;;;;;;;;;;5017374;28;20132;-59
2021/06/16 07:24:28;;;;;;;11.45;2.35;;;;;;;;;;5018713;28;20042;-59
2021/06/16 07:26:55;;;;;;;6.95;2.08;;;;;;;;;;5017364;28;20050;-59
2021/06/16 07:29:24;;;;;;;6.28;1.92;;;;;;;;;;5025142;28;20125;-59
2021/06/16 07:31:51;;;;;;;5.00;2.37;;;;;;;;;;5017006;28;20042;-59
2021/06/16 07:34:21;;;;;;;10.90;2.75;;;;;;;;;;5019240;28;20049;-59
2021/06/16 07:36:47;;;;;;;9.48;2.50;;;;;;;;;;5021771;28;20039;-59
2021/06/16 07:39:15;;;;;;;10.45;2.28;;;;;;;;;;5023853;28;20037;-59
2021/06/16 07:41:43;;;;;;;9.15;2.72;;;;;;;;;;5022814;28;20040;-59
2021/06/16 07:44:10;;;;;;;9.85;2.15;;;;;;;;;;5020402;28;20049;-60
2021/06/16 07:46:37;;;;;;;8.55;2.20;;;;;;;;;;5027212;28;20070;-59
2021/06/16 07:49:05;;;;;;;7.53;2.17;;;;;;;;;;5022179;28;20120;-59
2021/06/16 07:51:31;;;;;;;8.20;1.88;;;;;;;;;;5024589;28;20045;-59
2021/06/16 07:53:59;;;;;;;8.80;2.38;;;;;;;;;;5015421;28;20037;-59
2021/06/16 07:56:27;;;;;;;13.63;2.35;;;;;;;;;;5016470;28;20045;-59
2021/06/16 07:58:53;;;;;;;6.90;2.23;;;;;;;;;;5016849;28;20505;-59
2021/06/16 08:01:20;;;;;;;7.60;1.83;;;;;;;;;;5020458;28;20131;-59
2021/06/16 08:03:47;;;;;;;9.50;2.55;;;;;;;;;;5015211;28;20508;-59
2021/06/16 08:06:14;;;;;;;10.00;2.30;;;;;;;;;;5016664;28;20038;-60
2021/06/16 08:08:41;;;;;;;9.60;1.97;;;;;;;;;;5017427;28;20053;-59
2021/06/16 08:11:07;;;;;;;5.40;1.80;;;;;;;;;;5020036;28;20055;-63
2021/06/16 08:13:34;;;;;;;7.60;1.90;;;;;;;;;;5020980;28;20049;-60
2021/06/16 08:16:01;;;;;;;14.80;2.60;;;;;;;;;;5018385;28;20138;-60
2021/06/16 08:18:28;;;;;;;8.07;1.75;;;;;;;;;;5021079;28;20555;-60
2021/06/16 08:20:55;;;;;;;13.17;2.00;;;;;;;;;;5020943;28;20048;-60
2021/06/16 08:23:21;;;;;;;7.20;1.93;;;;;;;;;;5019627;28;20445;-60
2021/06/16 08:25:48;;;;;;;6.18;2.38;;;;;;;;;;5013278;28;20149;-59
2021/06/16 08:28:14;;;;;;;6.78;2.10;;;;;;;;;;5022147;28;20453;-59
2021/06/16 08:30:41;;;;;;;7.80;1.90;;;;;;;;;;5020866;28;20048;-60
2021/06/16 08:33:10;;;;;;;10.82;2.10;;;;;;;;;;5018386;28;20287;-60
2021/06/16 08:35:37;;;;;;;6.60;2.20;;;;;;;;;;5023703;28;20038;-59
2021/06/16 08:38:07;;;;;;;9.73;2.15;;;;;;;;;;5016146;28;20100;-59
2021/06/16 08:40:33;;;;;;;6.68;2.10;;;;;;;;;;5020460;28;20041;-60
2021/06/16 08:43:01;;;;;;;7.75;2.05;;;;;;;;;;5018188;28;20041;-60
2021/06/16 08:45:30;;;;;;;3.90;2.00;;;;;;;;;;5012241;28;20485;-60
2021/06/16 08:47:57;;;;;;;7.57;2.45;;;;;;;;;;5024381;28;20033;-60
2021/06/16 08:50:23;;;;;;;6.03;2.40;;;;;;;;;;5014349;28;20603;-60
2021/06/16 08:52:50;;;;;;;5.68;2.13;;;;;;;;;;5021256;28;20335;-60
2021/06/16 08:55:19;;;;;;;10.43;2.55;;;;;;;;;;5021623;28;20046;-60
2021/06/16 08:57:48;;;;;;;7.60;2.40;;;;;;;;;;5023746;28;20049;-60
2021/06/16 09:00:16;;;;;;;7.53;2.10;;;;;;;;;;5019559;28;20034;-59
2021/06/16 09:02:44;;;;;;;6.90;2.35;;;;;;;;;;5021043;28;20088;-60
2021/06/16 09:05:11;;;;;;;8.65;2.83;;;;;;;;;;5018156;28;20481;-59
2021/06/16 09:07:39;;;;;;;7.43;3.05;;;;;;;;;;5018126;28;20045;-59
2021/06/16 09:10:12;;;;;;;7.68;2.63;;;;;;;;;;5014406;28;20073;-60
2021/06/16 09:12:45;;;;;;;6.57;2.90;;;;;;;;;;5020495;28;20049;-60
2021/06/16 09:15:12;;;;;;;7.85;3.15;;;;;;;;;;5015810;28;20057;-60
2021/06/16 09:17:39;;;;;;;7.25;3.05;;;;;;;;;;5018615;28;20068;-60
2021/06/16 09:20:06;;;;;;;8.70;3.00;;;;;;;;;;5018795;28;20132;-60
2021/06/16 09:22:35;;;;;;;8.43;3.40;;;;;;;;;;5019236;28;20057;-60
2021/06/16 09:25:06;;;;;;;9.20;3.38;;;;;;;;;;5020139;28;20046;-59
2021/06/16 09:27:36;;;;;;;10.23;3.10;;;;;;;;;;5021249;28;20054;-60
2021/06/16 09:30:04;;;;;;;5.20;3.20;;;;;;;;;;5016577;28;20077;-60
2021/06/16 09:32:40;;;;;;;8.50;2.85;;;;;;;;;;5017430;28;20570;-60
2021/06/16 09:35:20;;;;;;;7.07;3.20;;;;;;;;;;5019363;28;20053;-59
2021/06/16 09:37:49;;;;;;;8.70;3.05;;;;;;;;;;5018053;28;20042;-60
2021/06/16 09:40:33;;;;;;;6.10;3.13;;;;;;;;;;5018378;28;20128;-60
2021/06/16 09:43:03;;;;;;;5.07;3.03;;;;;;;;;;5016770;28;20057;-60
2021/06/16 09:45:34;;;;;;;6.97;3.17;;;;;;;;;;5018171;28;20062;-60
2021/06/16 09:48:20;;;;;;;10.60;3.40;;;;;;;;;;5022368;28;20042;-60
2021/06/16 09:50:49;;;;;;;6.75;3.10;;;;;;;;;;5019693;28;20042;-60
2021/06/16 09:53:15;;;;;;;6.93;2.85;;;;;;;;;;5014467;28;20050;-60
2021/06/16 09:55:42;;;;;;;7.55;2.72;;;;;;;;;;5016856;28;20125;-60
2021/06/16 09:58:10;;;;;;;6.55;2.95;;;;;;;;;;5017197;28;20041;-60
2021/06/16 10:00:37;;;;;;;8.05;2.90;;;;;;;;;;5018239;28;20050;-60
2021/06/16 10:03:07;;;;;;;10.00;3.23;;;;;;;;;;5017493;28;20056;-60
2021/06/16 10:05:34;;;;;;;7.97;2.85;;;;;;;;;;5017460;28;20103;-60
2021/06/16 10:08:01;;;;;;;7.25;2.25;;;;;;;;;;5019783;28;20050;-60
2021/06/16 10:10:31;;;;;;;8.23;3.08;;;;;;;;;;5018217;28;20076;-60
2021/06/16 10:13:05;;;;;;;7.97;2.83;;;;;;;;;;5018481;28;20041;-60
2021/06/16 10:15:32;;;;;;;5.93;2.57;;;;;;;;;;5023247;28;20115;-60
2021/06/16 10:18:01;;;;;;;7.25;2.50;;;;;;;;;;5021316;28;20073;-60
2021/06/16 10:20:30;;;;;;;7.72;2.38;;;;;;;;;;5019458;28;20464;-60
2021/06/16 10:22:57;;;;;;;6.30;2.67;;;;;;;;;;5021723;28;20136;-60
2021/06/16 10:25:25;;;;;;;8.95;2.50;;;;;;;;;;5023333;28;20053;-59
2021/06/16 10:27:57;;;;;;;4.95;2.60;;;;;;;;;;5020207;28;20049;-60
2021/06/16 10:30:28;;;;;;;5.88;2.60;;;;;;;;;;5020508;28;20088;-60
2021/06/16 10:32:56;;;;;;;8.68;2.40;;;;;;;;;;5015504;28;20049;-60
2021/06/16 10:35:34;;;;;;;5.72;2.60;;;;;;;;;;5027562;28;20049;-60
2021/06/16 10:38:18;;;;;;;5.18;2.80;;;;;;;;;;5015403;28;20099;-60
2021/06/16 10:40:54;;;;;;;6.30;2.55;;;;;;;;;;5019032;28;20154;-60
2021/06/16 10:43:42;;;;;;;7.00;2.80;;;;;;;;;;5016843;28;20489;-60
2021/06/16 10:46:12;;;;;;;5.78;2.70;;;;;;;;;;5019546;28;20045;-60
2021/06/16 10:48:49;;;;;;;8.20;2.78;;;;;;;;;;5017369;28;20685;-60
2021/06/16 10:51:24;;;;;;;11.32;3.17;;;;;;;;;;5020297;28;20557;-60
2021/06/16 10:54:10;;;;;;;8.75;3.22;;;;;;;;;;5022468;28;20078;-60
2021/06/16 10:56:41;;;;;;;6.80;2.45;;;;;;;;;;5017999;28;20086;-60
2021/06/16 10:59:08;;;;;;;6.93;2.40;;;;;;;;;;5017532;28;20096;-60
2021/06/16 11:01:45;;;;;;;7.68;2.50;;;;;;;;;;5019747;28;20049;-60
2021/06/16 11:04:25;;;;;;;5.93;2.45;;;;;;;;;;5021030;28;20103;-59
2021/06/16 11:06:52;;;;;;;7.00;2.40;;;;;;;;;;5024661;28;20104;-58
2021/06/16 11:09:39;;;;;;;7.07;2.70;;;;;;;;;;5019978;28;20044;-58
2021/06/16 11:12:06;;;;;;;7.28;2.92;;;;;;;;;;5023413;28;20148;-58
2021/06/16 11:14:37;;;;;;;7.65;3.25;;;;;;;;;;5016179;28;20050;-58
2021/06/16 11:17:08;;;;;;;8.77;3.15;;;;;;;;;;5023754;28;20053;-58
2021/06/16 11:19:40;;;;;;;6.07;2.60;;;;;;;;;;5019442;28;20145;-58
2021/06/16 11:22:12;;;;;;;7.82;2.42;;;;;;;;;;5019979;28;20049;-58
2021/06/16 11:24:58;;;;;;;7.07;2.65;;;;;;;;;;5022635;28;20058;-58
2021/06/16 11:27:43;;;;;;;6.82;3.00;;;;;;;;;;5022456;28;20213;-58
2021/06/16 11:30:14;;;;;;;5.07;2.60;;;;;;;;;;5021061;28;20037;-58
2021/06/16 11:32:41;;;;;;;4.70;2.80;;;;;;;;;;5015171;28;20077;-58
2021/06/16 11:35:07;;;;;;;6.53;2.80;;;;;;;;;;5021413;28;20107;-58
2021/06/16 11:37:35;;;;;;;;;;;;;;;;;;5023184;28;20033;-58
2021/06/16 11:40:08;;;;;;;5.53;2.40;;;;;;;;;;5016199;28;20295;-58
2021/06/16 11:42:41;;;;;;;7.93;2.97;;;;;;;;;;5018291;28;20050;-58
2021/06/16 11:45:08;;;;;;;8.32;3.00;;;;;;;;;;5021913;28;20052;-58
2021/06/16 11:47:38;;;;;;;8.95;2.70;;;;;;;;;;5015785;28;20056;-58
2021/06/16 11:50:07;;;;;;;6.13;3.25;;;;;;;;;;5021801;28;20045;-58
2021/06/16 11:52:34;;;;;;;5.07;2.80;;;;;;;;;;5020460;28;20623;-58
2021/06/16 11:55:01;;;;;;;7.13;3.35;;;;;;;;;;5018181;28;20037;-58
2021/06/16 11:57:30;;;;;;;10.32;3.25;;;;;;;;;;5022634;28;20053;-58
2021/06/16 11:59:57;;;;;;;10.13;3.38;;;;;;;;;;5015068;28;20133;-58
2021/06/16 12:02:27;;;;;;;10.13;3.22;;;;;;;;;;5018740;28;20054;-58
2021/06/16 12:05:06;;;;;;;6.03;3.00;;;;;;;;;;5016879;28;20048;-58
2021/06/16 12:07:44;;;;;;;6.38;2.70;;;;;;;;;;5022009;28;20096;-58
2021/06/16 12:10:23;;;;;;;7.25;2.97;;;;;;;;;;5016062;28;20099;-58
2021/06/16 12:12:51;;;;;;;7.05;3.15;;;;;;;;;;5021991;28;20096;-58
2021/06/16 12:15:26;;;;;;;5.43;2.88;;;;;;;;;;5017565;28;20042;-58
2021/06/16 12:18:14;;;;;;;7.28;2.97;;;;;;;;;;5020840;28;20048;-58
2021/06/16 12:20:55;;;;;;;6.68;3.30;;;;;;;;;;5022086;28;20046;-58
2021/06/16 12:23:26;;;;;;;6.38;3.20;;;;;;;;;;5019950;28;20452;-58
2021/06/16 12:26:07;;;;;;;7.65;2.97;;;;;;;;;;5022278;28;20057;-58
2021/06/16 12:28:35;;;;;;;6.07;3.28;;;;;;;;;;5020237;28;20049;-58
2021/06/16 12:31:04;;;;;;;5.18;3.03;;;;;;;;;;5019426;28;20447;-58
2021/06/16 12:33:38;;;;;;;7.38;3.35;;;;;;;;;;5017778;28;20611;-58
2021/06/16 12:36:15;;;;;;;5.45;3.08;;;;;;;;;;5018516;28;20038;-58
2021/06/16 12:39:06;;;;;;;7.03;3.10;;;;;;;;;;5019929;28;20513;-58
2021/06/16 12:41:49;;;;;;;7.80;2.95;;;;;;;;;;5020462;28;20049;-58
2021/06/16 12:44:16;;;;;;;6.15;2.65;;;;;;;;;;5019440;28;20143;-58
2021/06/16 12:46:54;;;;;;;9.77;3.55;;;;;;;;;;5017459;28;20136;-58
2021/06/16 12:49:21;;;;;;;5.88;3.10;;;;;;;;;;5019593;28;20077;-58
2021/06/16 12:51:56;;;;;;;5.88;3.28;;;;;;;;;;5016156;28;20042;-58
2021/06/16 12:54:33;;;;;;;7.90;3.17;;;;;;;;;;5019499;28;20492;-58
2021/06/16 12:57:07;;;;;;;7.90;3.78;;;;;;;;;;5018017;28;20104;-58
2021/06/16 12:59:35;;;;;;;6.88;3.38;;;;;;;;;;5016743;28;20037;-58
2021/06/16 13:02:01;;;;;;;7.65;3.22;;;;;;;;;;5018182;28;20057;-58
2021/06/16 13:04:42;;;;;;;6.60;2.92;;;;;;;;;;5019389;28;20407;-58
2021/06/16 13:07:08;;;;;;;6.85;3.33;;;;;;;;;;5014575;28;20058;-58
2021/06/16 13:09:35;;;;;;;7.17;3.13;;;;;;;;;;5018435;28;20124;-58
2021/06/16 13:12:03;;;;;;;6.78;3.13;;;;;;;;;;5019331;28;20081;-58
2021/06/16 13:14:32;;;;;;;7.20;3.05;;;;;;;;;;5018866;28;20042;-58
2021/06/16 13:17:00;;;;;;;9.43;2.80;;;;;;;;;;5013414;28;20042;-58
2021/06/16 13:19:27;;;;;;;6.85;2.90;;;;;;;;;;5017626;28;20121;-58
2021/06/16 13:21:56;;;;;;;4.93;3.03;;;;;;;;;;5022183;28;20057;-58
2021/06/16 13:24:23;;;;;;;7.30;2.90;;;;;;;;;;5023380;28;20041;-58
2021/06/16 13:26:58;;;;;;;5.28;2.55;;;;;;;;;;5015161;28;20060;-58
2021/06/16 13:29:28;;;;;;;5.07;2.65;;;;;;;;;;5016659;28;20074;-58
2021/06/16 13:31:55;;;;;;;7.90;3.10;;;;;;;;;;5014253;28;20054;-58
2021/06/16 13:34:21;;;;;;;7.07;2.80;;;;;;;;;;5019151;28;20046;-58
2021/06/16 13:36:49;;;;;;;5.35;2.78;;;;;;;;;;5020611;28;20050;-58
2021/06/16 13:39:17;;;;;;;4.95;2.58;;;;;;;;;;5014078;28;20050;-58
2021/06/16 13:41:51;;;;;;;9.90;3.13;;;;;;;;;;5017201;28;20042;-58
2021/06/16 13:44:18;;;;;;;6.22;2.45;;;;;;;;;;5021055;28;20439;-58
2021/06/16 13:46:45;;;;;;;5.93;2.50;;;;;;;;;;5017140;28;20065;-58
2021/06/16 13:49:15;;;;;;;5.30;2.63;;;;;;;;;;5018237;28;20386;-58
2021/06/16 13:51:42;;;;;;;7.80;2.78;;;;;;;;;;5018614;28;20038;-58
2021/06/16 13:54:12;;;;;;;7.30;2.03;;;;;;;;;;5020968;28;20049;-58
2021/06/16 13:56:39;;;;;;;6.18;2.70;;;;;;;;;;5023388;28;20317;-58
2021/06/16 13:59:07;;;;;;;5.38;2.60;;;;;;;;;;5021416;28;20133;-58
2021/06/16 14:01:34;;;;;;;5.53;2.22;;;;;;;;;;5015910;28;20041;-58
2021/06/16 14:04:01;;;;;;;7.43;2.47;;;;;;;;;;5032418;28;20088;-58
2021/06/16 14:06:27;;;;;;;8.47;2.80;;;;;;;;;;5022367;28;20034;-58
2021/06/16 14:08:56;;;;;;;5.05;2.63;;;;;;;;;;5020526;28;20319;-58
2021/06/16 14:11:25;;;;;;;7.00;2.40;;;;;;;;;;5019011;28;20037;-58
2021/06/16 14:13:52;;;;;;;5.25;2.38;;;;;;;;;;5021305;28;20046;-58
2021/06/16 14:16:19;;;;;;;4.93;2.30;;;;;;;;;;5020033;28;20048;-58
2021/06/16 14:18:46;;;;;;;4.95;2.30;;;;;;;;;;5022757;28;20104;-58
2021/06/16 14:21:13;;;;;;;5.45;2.30;;;;;;;;;;5016003;28;20038;-58
2021/06/16 14:23:40;;;;;;;6.88;3.08;;;;;;;;;;5022161;28;20503;-58
2021/06/16 14:26:08;;;;;;;6.35;2.53;;;;;;;;;;5017024;28;20084;-58
2021/06/16 14:28:35;;;;;;;5.53;2.25;;;;;;;;;;5020032;28;20044;-58
2021/06/16 14:31:05;;;;;;;5.53;2.50;;;;;;;;;;5022305;28;20065;-58
2021/06/16 14:33:32;;;;;;;10.20;2.25;;;;;;;;;;5021711;28;20053;-58
2021/06/16 14:36:00;;;;;;;4.82;2.80;;;;;;;;;;5022522;28;20050;-58
2021/06/16 14:38:27;;;;;;;6.18;2.92;;;;;;;;;;5022898;28;20052;-58
2021/06/16 14:40:54;;;;;;;8.45;3.10;;;;;;;;;;5022506;28;20033;-58
2021/06/16 14:43:20;;;;;;;9.77;2.70;;;;;;;;;;5023428;28;20041;-58
2021/06/16 14:45:48;;;;;;;9.23;2.90;;;;;;;;;;5021279;28;20092;-58
2021/06/16 14:48:15;;;;;;;4.50;2.25;;;;;;;;;;5019820;28;20398;-58
2021/06/16 14:50:41;;;;;;;3.90;2.08;;;;;;;;;;5013636;28;20045;-58
2021/06/16 14:53:08;;;;;;;7.18;2.47;;;;;;;;;;5021416;28;20056;-58
2021/06/16 14:55:35;;;;;;;4.77;2.37;;;;;;;;;;5021361;28;20551;-58
2021/06/16 14:58:01;;;;;;;6.75;2.47;;;;;;;;;;5014915;28;20300;-58
2021/06/16 15:00:30;;;;;;;5.53;2.30;;;;;;;;;;5022941;28;20132;-58
2021/06/16 15:02:56;;;;;;;7.68;2.53;;;;;;;;;;5019707;28;20095;-58
2021/06/16 15:05:23;;;;;;;5.90;2.40;;;;;;;;;;5017209;28;20041;-58
2021/06/16 15:07:50;;;;;;;7.53;2.75;;;;;;;;;;5020161;28;20356;-58
2021/06/16 15:10:17;;;;;;;;;;;;;;;;;;5017040;28;20497;-58
2021/06/16 15:12:44;;;;;;;4.22;2.17;;;;;;;;;;5025503;28;20369;-58
2021/06/16 15:15:12;;;;;;;5.15;2.15;;;;;;;;;;5021488;28;20065;-58
2021/06/16 15:17:40;;;;;;;5.85;2.00;;;;;;;;;;5019799;28;20053;-58
2021/06/16 15:20:07;;;;;;;7.68;2.60;;;;;;;;;;5016192;28;20397;-58
2021/06/16 15:22:37;;;;;;;5.35;2.85;;;;;;;;;;5019541;28;20104;-58
2021/06/16 15:25:05;;;;;;;5.03;2.30;;;;;;;;;;5019958;28;20050;-58
2021/06/16 15:27:33;;;;;;;3.90;2.20;;;;;;;;;;5019959;28;20076;-58
2021/06/16 15:30:00;;;;;;;5.05;2.47;;;;;;;;;;5020759;28;20465;-58
2021/06/16 15:32:26;;;;;;;7.95;2.58;;;;;;;;;;5018134;28;20050;-58
2021/06/16 15:34:53;;;;;;;6.47;2.23;;;;;;;;;;5020737;28;20063;-58
2021/06/16 15:37:20;;;;;;;;;;;;;;;;;;5015906;28;20041;-58
2021/06/16 15:39:47;;;;;;;5.88;2.10;;;;;;;;;;5019132;28;19929;-58
2021/06/16 15:42:14;;;;;;;5.93;2.67;;;;;;;;;;5019212;28;20516;-58
2021/06/16 15:44:43;;;;;;;5.35;2.50;;;;;;;;;;5020262;28;20048;-58
2021/06/16 15:47:10;;;;;;;6.78;2.53;;;;;;;;;;5018852;28;20041;-58
2021/06/16 15:49:37;;;;;;;6.38;2.40;;;;;;;;;;5018682;28;20096;-58
2021/06/16 15:52:03;;;;;;;5.18;2.10;;;;;;;;;;5015516;28;20041;-58
2021/06/16 15:54:31;;;;;;;;;;;;;;;;;;5024867;28;20041;-58
2021/06/16 15:56:58;;;;;;;5.72;2.03;;;;;;;;;;5020045;28;20295;-58
2021/06/16 15:59:25;;;;;;;4.05;1.90;;;;;;;;;;5016434;28;20114;-58
2021/06/16 16:01:52;;;;;;;6.85;2.20;;;;;;;;;;5018603;28;20607;-58
2021/06/16 16:04:19;;;;;;;8.07;2.55;;;;;;;;;;5020953;28;20041;-58
2021/06/16 16:06:48;;;;;;;3.72;2.03;;;;;;;;;;5021290;28;20041;-58
2021/06/16 16:09:15;;;;;;;6.25;2.60;;;;;;;;;;5021579;28;20048;-58
2021/06/16 16:11:42;;;;;;;4.33;2.40;;;;;;;;;;5016556;28;20049;-58
2021/06/16 16:14:09;;;;;;;3.05;2.00;;;;;;;;;;5021826;28;20292;-58
2021/06/16 16:16:36;;;;;;;5.90;2.70;;;;;;;;;;5018247;28;20056;-58
2021/06/16 16:19:04;;;;;;;9.55;3.10;;;;;;;;;;5020005;28;20124;-58
2021/06/16 16:21:32;;;;;;;5.30;2.60;;;;;;;;;;5020966;28;20038;-58
2021/06/16 16:23:59;;;;;;;;;;;;;;;;;;5021205;28;20046;-58
2021/06/16 16:26:25;;;;;;;5.93;2.47;;;;;;;;;;5017833;28;19921;-58
2021/06/16 16:28:52;;;;;;;7.03;2.60;;;;;;;;;;5013952;28;20076;-58
2021/06/16 16:31:20;;;;;;;4.93;2.60;;;;;;;;;;5017038;28;20046;-58
2021/06/16 16:33:47;;;;;;;7.38;2.85;;;;;;;;;;5021085;28;20445;-58
2021/06/16 16:36:15;;;;;;;7.07;3.13;;;;;;;;;;5019891;28;20386;-58
2021/06/16 16:38:42;;;;;;;4.60;2.58;;;;;;;;;;5019620;28;20056;-58
2021/06/16 16:41:09;;;;;;;;;;;;;;;;;;5018974;28;20635;-58
2021/06/16 16:43:36;;;;;;;7.47;2.80;;;;;;;;;;5016965;28;20526;-58
2021/06/16 16:46:02;;;;;;;6.03;2.80;;;;;;;;;;5020446;28;20037;-58
2021/06/16 16:48:30;;;;;;;5.28;2.45;;;;;;;;;;5016341;28;20085;-58
2021/06/16 16:50:56;;;;;;;5.32;2.45;;;;;;;;;;5016300;28;20057;-58
2021/06/16 16:53:25;;;;;;;4.03;2.50;;;;;;;;;;5017770;28;20599;-58
2021/06/16 16:55:52;;;;;;;5.13;2.40;;;;;;;;;;5012953;28;20042;-58
2021/06/16 16:58:19;;;;;;;5.47;2.40;;;;;;;;;;5020196;28;20056;-58
2021/06/16 17:00:46;;;;;;;4.27;2.37;;;;;;;;;;5017674;28;20033;-58
2021/06/16 17:03:13;;;;;;;4.63;2.15;;;;;;;;;;5020440;28;20132;-58